Accueil
METAR-TAF:

METAR-TAF

Aéroports :

Córdoba, Argentine

latitude: 31-19S, longitude: 064-13W, altitude: 484 m

Observation

Le bulletin a été fait il y a 9 minutes, à 09:00 UTC
Vent 4 kt de ouest/sud-ouest
Température 8°C
Humidité 93%
Pression 1020 hPa
Visibilité 10 km ou plus
pas de nuages en-dessous de 1500 mètres et pas de cumulonimbus.

METAR: SACO 260900Z 25004KT CAVOK 08/07 Q1020

Heure: 06:09 (09:09 UTC)

Prévision

Le bulletin a été fait il y a 4 heures et 9 minutes, à 05:00 UTC
Prévision valable du 26 à 06 UTC au 27 à 06 UTC
Vent 2 kt de direction variable
Visibilité 10 km ou plus
Nuages fragmentés à une hauteur de 2000 ft
Evoluant progressivement
du 26 à 09 UTC au 26 à 13 UTC
Vent 10 kt de sud/sud-ouest
Visibilité 10 km ou plus
Nuages épars à une hauteur de 3000 ft

TAF: SACO 260500Z 2606/2706 VRB02KT 9999 BKN020 TX16/2618Z TN06/2610Z BECMG 2609/2613 20010KT 9999 SCT030

Observations et prévisions météorologiques de plus de 4000 aéroports (messages METAR et TAF).

Les stations disponibles sont représentées par des disques jaunes et rouges sur la carte.

Passer la souris dessus pour voir le nom de la station.

Cliquer dessus pour voir les observations et prévisions météorologiques.

Pour changer de carte: cliquez sur les boutons verts avec une croix noire pour zoomer, sur le bouton vert avec un tiret pour effectuer un zoom arrière, ou sur les flèches vertes pour les cartes adjacentes.


METAR-TAF: